Greenwood, Nebraska
Current Conditions -  °F | °C
As of 2:54 AM on Thursday 27 Nov 2014 (Local Time) from KLNK Reporting Station
Few Clouds Few Clouds  
Wind Chill: 11°   Ceiling: Unl
Heat Index: 18°   Visibility: 10mi
Dew Point: 11°   Wind: 5mph
Humidity: 74%   Direction: 310°NW
Pressure: 30.52"   Gusts: NA
Location:  40.96°N, 96.44°W
Report Text: KLNK 270854Z AUTO 31004KT 10SM FEW055 M08/M12 A3052 RMK AO2 SLP352 T10781117 53007
Loading
Personal Weather Stations






























Interactive Weather Map New forecast layout! Learn more

10-Day Weather Forecast

Advertisements
Track Severe Weather on mobile